sensor_id;sensor_type;location;lat;lon;timestamp;P1;durP1;ratioP1;P2;durP2;ratioP2
43837;SDS011;65998;46.256;7.534;2023-06-14T00:01:56;101.80;;;46.72;;
43837;SDS011;65998;46.256;7.534;2023-06-14T00:04:22;101.40;;;46.33;;
43837;SDS011;65998;46.256;7.534;2023-06-14T00:06:47;98.72;;;45.17;;
43837;SDS011;65998;46.256;7.534;2023-06-14T00:09:13;99.80;;;44.47;;
43837;SDS011;65998;46.256;7.534;2023-06-14T00:11:40;96.90;;;42.88;;
43837;SDS011;65998;46.256;7.534;2023-06-14T00:14:07;90.93;;;41.20;;
43837;SDS011;65998;46.256;7.534;2023-06-14T00:16:32;84.57;;;39.30;;
43837;SDS011;65998;46.256;7.534;2023-06-14T00:18:59;94.57;;;43.00;;
43837;SDS011;65998;46.256;7.534;2023-06-14T00:21:25;92.20;;;41.30;;
43837;SDS011;65998;46.256;7.534;2023-06-14T00:23:51;94.38;;;42.40;;
43837;SDS011;65998;46.256;7.534;2023-06-14T00:26:16;92.67;;;41.87;;
43837;SDS011;65998;46.256;7.534;2023-06-14T00:28:42;90.55;;;40.72;;
43837;SDS011;65998;46.256;7.534;2023-06-14T00:31:08;88.77;;;39.93;;
43837;SDS011;65998;46.256;7.534;2023-06-14T00:33:34;88.70;;;40.03;;
43837;SDS011;65998;46.256;7.534;2023-06-14T00:35:59;87.07;;;38.67;;
43837;SDS011;65998;46.256;7.534;2023-06-14T00:38:25;86.82;;;37.78;;
43837;SDS011;65998;46.256;7.534;2023-06-14T00:40:51;84.63;;;38.10;;
43837;SDS011;65998;46.256;7.534;2023-06-14T00:43:17;78.07;;;35.67;;
43837;SDS011;65998;46.256;7.534;2023-06-14T00:45:42;80.85;;;35.63;;
43837;SDS011;65998;46.256;7.534;2023-06-14T00:48:08;75.73;;;34.33;;
43837;SDS011;65998;46.256;7.534;2023-06-14T00:50:34;77.05;;;35.17;;
43837;SDS011;65998;46.256;7.534;2023-06-14T00:53:01;79.50;;;34.85;;
43837;SDS011;65998;46.256;7.534;2023-06-14T00:55:27;79.20;;;35.65;;
43837;SDS011;65998;46.256;7.534;2023-06-14T00:57:54;71.53;;;32.90;;
43837;SDS011;65998;46.256;7.534;2023-06-14T01:00:20;69.90;;;32.25;;
43837;SDS011;65998;46.256;7.534;2023-06-14T01:02:46;67.25;;;30.70;;
43837;SDS011;65998;46.256;7.534;2023-06-14T01:05:13;68.23;;;30.80;;
43837;SDS011;65998;46.256;7.534;2023-06-14T01:07:43;73.07;;;33.58;;
43837;SDS011;65998;46.256;7.534;2023-06-14T01:13:38;64.68;;;29.75;;
43837;SDS011;65998;46.256;7.534;2023-06-14T01:16:06;65.90;;;30.13;;
43837;SDS011;65998;46.256;7.534;2023-06-14T01:18:33;68.93;;;30.87;;
43837;SDS011;65998;46.256;7.534;2023-06-14T01:20:59;68.13;;;30.15;;
43837;SDS011;65998;46.256;7.534;2023-06-14T01:23:25;62.85;;;28.70;;
43837;SDS011;65998;46.256;7.534;2023-06-14T01:25:51;66.50;;;29.23;;
43837;SDS011;65998;46.256;7.534;2023-06-14T01:28:17;59.47;;;27.48;;
43837;SDS011;65998;46.256;7.534;2023-06-14T01:30:44;56.28;;;25.50;;
43837;SDS011;65998;46.256;7.534;2023-06-14T01:33:14;60.95;;;27.05;;
43837;SDS011;65998;46.256;7.534;2023-06-14T01:35:44;60.10;;;28.10;;
43837;SDS011;65998;46.256;7.534;2023-06-14T01:38:13;58.95;;;27.27;;
43837;SDS011;65998;46.256;7.534;2023-06-14T01:40:39;60.65;;;26.30;;
43837;SDS011;65998;46.256;7.534;2023-06-14T01:43:06;59.70;;;26.88;;
43837;SDS011;65998;46.256;7.534;2023-06-14T01:45:32;59.33;;;26.50;;
43837;SDS011;65998;46.256;7.534;2023-06-14T01:47:59;53.92;;;25.35;;
43837;SDS011;65998;46.256;7.534;2023-06-14T01:50:28;56.08;;;25.38;;
43837;SDS011;65998;46.256;7.534;2023-06-14T01:52:55;57.90;;;25.60;;
43837;SDS011;65998;46.256;7.534;2023-06-14T01:55:21;53.00;;;24.65;;
43837;SDS011;65998;46.256;7.534;2023-06-14T01:57:47;51.15;;;23.40;;
43837;SDS011;65998;46.256;7.534;2023-06-14T02:00:13;54.03;;;23.93;;
43837;SDS011;65998;46.256;7.534;2023-06-14T02:02:40;57.45;;;24.65;;
43837;SDS011;65998;46.256;7.534;2023-06-14T02:05:06;42.88;;;21.00;;
43837;SDS011;65998;46.256;7.534;2023-06-14T02:07:32;49.38;;;22.67;;
43837;SDS011;65998;46.256;7.534;2023-06-14T02:09:58;52.23;;;23.47;;
43837;SDS011;65998;46.256;7.534;2023-06-14T02:12:24;48.95;;;23.02;;
43837;SDS011;65998;46.256;7.534;2023-06-14T02:14:50;48.00;;;21.70;;
43837;SDS011;65998;46.256;7.534;2023-06-14T02:17:16;46.92;;;22.67;;
43837;SDS011;65998;46.256;7.534;2023-06-14T02:19:42;48.00;;;22.10;;
43837;SDS011;65998;46.256;7.534;2023-06-14T02:22:08;46.50;;;22.43;;
43837;SDS011;65998;46.256;7.534;2023-06-14T02:24:34;46.70;;;21.00;;
43837;SDS011;65998;46.256;7.534;2023-06-14T02:27:01;45.50;;;21.42;;
43837;SDS011;65998;46.256;7.534;2023-06-14T02:29:27;44.13;;;21.13;;
43837;SDS011;65998;46.256;7.534;2023-06-14T02:31:53;46.77;;;21.07;;
43837;SDS011;65998;46.256;7.534;2023-06-14T02:34:18;44.50;;;20.38;;
43837;SDS011;65998;46.256;7.534;2023-06-14T02:36:44;46.72;;;21.67;;
43837;SDS011;65998;46.256;7.534;2023-06-14T02:39:10;42.20;;;20.00;;
43837;SDS011;65998;46.256;7.534;2023-06-14T02:41:37;42.97;;;19.92;;
43837;SDS011;65998;46.256;7.534;2023-06-14T02:44:03;42.55;;;18.95;;
43837;SDS011;65998;46.256;7.534;2023-06-14T02:46:29;40.88;;;18.13;;
43837;SDS011;65998;46.256;7.534;2023-06-14T02:48:55;45.38;;;20.25;;
43837;SDS011;65998;46.256;7.534;2023-06-14T02:51:21;39.33;;;18.08;;
43837;SDS011;65998;46.256;7.534;2023-06-14T02:53:47;44.70;;;18.83;;
43837;SDS011;65998;46.256;7.534;2023-06-14T02:56:13;44.63;;;19.83;;
43837;SDS011;65998;46.256;7.534;2023-06-14T02:58:38;40.03;;;18.37;;
43837;SDS011;65998;46.256;7.534;2023-06-14T03:01:04;37.97;;;18.45;;
43837;SDS011;65998;46.256;7.534;2023-06-14T03:03:30;40.08;;;18.30;;
43837;SDS011;65998;46.256;7.534;2023-06-14T03:05:56;39.30;;;17.30;;
43837;SDS011;65998;46.256;7.534;2023-06-14T03:08:22;39.43;;;19.07;;
43837;SDS011;65998;46.256;7.534;2023-06-14T03:10:48;39.90;;;18.58;;
43837;SDS011;65998;46.256;7.534;2023-06-14T03:13:14;36.65;;;17.23;;
43837;SDS011;65998;46.256;7.534;2023-06-14T03:15:42;38.05;;;17.45;;
43837;SDS011;65998;46.256;7.534;2023-06-14T03:18:08;39.10;;;17.35;;
43837;SDS011;65998;46.256;7.534;2023-06-14T03:20:35;38.88;;;18.23;;
43837;SDS011;65998;46.256;7.534;2023-06-14T03:23:01;35.25;;;17.08;;
43837;SDS011;65998;46.256;7.534;2023-06-14T03:25:28;34.72;;;16.67;;
43837;SDS011;65998;46.256;7.534;2023-06-14T03:27:54;36.20;;;16.75;;
43837;SDS011;65998;46.256;7.534;2023-06-14T03:30:20;35.80;;;16.35;;
43837;SDS011;65998;46.256;7.534;2023-06-14T03:32:46;36.30;;;16.65;;
43837;SDS011;65998;46.256;7.534;2023-06-14T03:35:12;34.33;;;16.50;;
43837;SDS011;65998;46.256;7.534;2023-06-14T03:37:38;35.57;;;16.03;;
43837;SDS011;65998;46.256;7.534;2023-06-14T03:40:04;35.13;;;16.05;;
43837;SDS011;65998;46.256;7.534;2023-06-14T03:42:30;32.13;;;15.23;;
43837;SDS011;65998;46.256;7.534;2023-06-14T03:44:58;31.73;;;15.27;;
43837;SDS011;65998;46.256;7.534;2023-06-14T03:47:23;32.00;;;15.10;;
43837;SDS011;65998;46.256;7.534;2023-06-14T03:49:49;31.63;;;14.77;;
43837;SDS011;65998;46.256;7.534;2023-06-14T03:52:15;31.70;;;14.47;;
43837;SDS011;65998;46.256;7.534;2023-06-14T03:54:41;35.40;;;15.07;;
43837;SDS011;65998;46.256;7.534;2023-06-14T03:57:06;30.67;;;14.57;;
43837;SDS011;65998;46.256;7.534;2023-06-14T03:59:32;28.85;;;13.90;;
43837;SDS011;65998;46.256;7.534;2023-06-14T04:01:58;30.50;;;14.70;;
43837;SDS011;65998;46.256;7.534;2023-06-14T04:04:24;32.20;;;14.50;;
43837;SDS011;65998;46.256;7.534;2023-06-14T04:06:49;30.40;;;14.53;;
43837;SDS011;65998;46.256;7.534;2023-06-14T04:09:15;30.58;;;13.60;;
43837;SDS011;65998;46.256;7.534;2023-06-14T04:11:41;30.53;;;13.83;;
43837;SDS011;65998;46.256;7.534;2023-06-14T04:14:07;28.38;;;13.68;;
43837;SDS011;65998;46.256;7.534;2023-06-14T04:16:32;28.75;;;13.40;;
43837;SDS011;65998;46.256;7.534;2023-06-14T04:18:58;26.92;;;13.18;;
43837;SDS011;65998;46.256;7.534;2023-06-14T04:21:24;28.02;;;12.90;;
43837;SDS011;65998;46.256;7.534;2023-06-14T04:23:50;25.23;;;12.13;;
43837;SDS011;65998;46.256;7.534;2023-06-14T04:26:15;23.33;;;12.15;;
43837;SDS011;65998;46.256;7.534;2023-06-14T04:28:41;25.85;;;12.20;;
43837;SDS011;65998;46.256;7.534;2023-06-14T04:31:07;26.23;;;12.45;;
43837;SDS011;65998;46.256;7.534;2023-06-14T04:33:34;25.80;;;12.27;;
43837;SDS011;65998;46.256;7.534;2023-06-14T04:36:01;26.77;;;11.90;;
43837;SDS011;65998;46.256;7.534;2023-06-14T04:38:27;24.75;;;11.20;;
43837;SDS011;65998;46.256;7.534;2023-06-14T04:40:52;26.35;;;12.35;;
43837;SDS011;65998;46.256;7.534;2023-06-14T04:43:18;25.10;;;11.73;;
43837;SDS011;65998;46.256;7.534;2023-06-14T04:45:44;24.88;;;11.10;;
43837;SDS011;65998;46.256;7.534;2023-06-14T04:48:10;23.10;;;11.70;;
43837;SDS011;65998;46.256;7.534;2023-06-14T04:50:35;21.92;;;10.27;;
43837;SDS011;65998;46.256;7.534;2023-06-14T04:53:01;24.83;;;10.67;;
43837;SDS011;65998;46.256;7.534;2023-06-14T04:55:27;23.85;;;11.38;;
43837;SDS011;65998;46.256;7.534;2023-06-14T04:57:53;21.13;;;10.20;;
43837;SDS011;65998;46.256;7.534;2023-06-14T05:00:19;23.23;;;11.03;;
43837;SDS011;65998;46.256;7.534;2023-06-14T05:02:46;23.00;;;11.10;;
43837;SDS011;65998;46.256;7.534;2023-06-14T05:05:12;23.13;;;10.38;;
43837;SDS011;65998;46.256;7.534;2023-06-14T05:07:38;21.67;;;10.25;;
43837;SDS011;65998;46.256;7.534;2023-06-14T05:10:04;21.30;;;10.15;;
43837;SDS011;65998;46.256;7.534;2023-06-14T05:12:31;22.33;;;9.98;;
43837;SDS011;65998;46.256;7.534;2023-06-14T05:14:57;20.57;;;10.10;;
43837;SDS011;65998;46.256;7.534;2023-06-14T05:17:23;21.85;;;10.10;;
43837;SDS011;65998;46.256;7.534;2023-06-14T05:19:48;20.57;;;10.10;;
43837;SDS011;65998;46.256;7.534;2023-06-14T05:22:14;21.45;;;9.93;;
43837;SDS011;65998;46.256;7.534;2023-06-14T05:24:40;20.90;;;9.37;;
43837;SDS011;65998;46.256;7.534;2023-06-14T05:27:06;19.77;;;9.35;;
43837;SDS011;65998;46.256;7.534;2023-06-14T05:29:31;20.98;;;9.55;;
43837;SDS011;65998;46.256;7.534;2023-06-14T05:31:57;18.47;;;9.07;;
43837;SDS011;65998;46.256;7.534;2023-06-14T05:34:23;19.98;;;9.23;;
43837;SDS011;65998;46.256;7.534;2023-06-14T05:36:49;20.52;;;9.40;;
43837;SDS011;65998;46.256;7.534;2023-06-14T05:39:15;19.57;;;9.40;;
43837;SDS011;65998;46.256;7.534;2023-06-14T05:41:41;16.55;;;8.40;;
43837;SDS011;65998;46.256;7.534;2023-06-14T05:44:06;20.13;;;9.13;;
43837;SDS011;65998;46.256;7.534;2023-06-14T05:46:34;19.08;;;9.10;;
43837;SDS011;65998;46.256;7.534;2023-06-14T05:48:59;19.15;;;9.10;;
43837;SDS011;65998;46.256;7.534;2023-06-14T05:51:25;16.58;;;8.40;;
43837;SDS011;65998;46.256;7.534;2023-06-14T05:53:51;18.02;;;8.52;;
43837;SDS011;65998;46.256;7.534;2023-06-14T05:56:17;17.98;;;8.52;;
43837;SDS011;65998;46.256;7.534;2023-06-14T05:58:44;19.97;;;8.57;;
43837;SDS011;65998;46.256;7.534;2023-06-14T06:01:11;17.70;;;8.18;;
43837;SDS011;65998;46.256;7.534;2023-06-14T06:03:36;16.00;;;7.75;;
43837;SDS011;65998;46.256;7.534;2023-06-14T06:06:02;19.13;;;8.60;;
43837;SDS011;65998;46.256;7.534;2023-06-14T06:08:28;17.52;;;7.78;;
43837;SDS011;65998;46.256;7.534;2023-06-14T06:10:54;16.65;;;8.02;;
43837;SDS011;65998;46.256;7.534;2023-06-14T06:13:20;17.63;;;7.63;;
43837;SDS011;65998;46.256;7.534;2023-06-14T06:15:46;15.52;;;7.95;;
43837;SDS011;65998;46.256;7.534;2023-06-14T06:18:11;16.73;;;7.37;;
43837;SDS011;65998;46.256;7.534;2023-06-14T06:20:37;16.88;;;8.00;;
43837;SDS011;65998;46.256;7.534;2023-06-14T06:23:03;15.60;;;7.23;;
43837;SDS011;65998;46.256;7.534;2023-06-14T06:25:29;14.52;;;7.28;;
43837;SDS011;65998;46.256;7.534;2023-06-14T06:27:55;14.75;;;7.45;;
43837;SDS011;65998;46.256;7.534;2023-06-14T06:30:21;16.50;;;7.78;;
43837;SDS011;65998;46.256;7.534;2023-06-14T06:32:47;15.88;;;7.72;;
43837;SDS011;65998;46.256;7.534;2023-06-14T06:35:13;16.15;;;7.40;;
43837;SDS011;65998;46.256;7.534;2023-06-14T06:37:39;14.17;;;6.73;;
43837;SDS011;65998;46.256;7.534;2023-06-14T06:40:05;15.23;;;7.13;;
43837;SDS011;65998;46.256;7.534;2023-06-14T06:42:32;15.73;;;7.22;;
43837;SDS011;65998;46.256;7.534;2023-06-14T06:44:58;14.68;;;6.97;;
43837;SDS011;65998;46.256;7.534;2023-06-14T06:47:23;13.87;;;6.90;;
43837;SDS011;65998;46.256;7.534;2023-06-14T06:49:49;15.85;;;7.07;;
43837;SDS011;65998;46.256;7.534;2023-06-14T06:52:15;14.70;;;7.13;;
43837;SDS011;65998;46.256;7.534;2023-06-14T06:54:41;13.43;;;6.90;;
43837;SDS011;65998;46.256;7.534;2023-06-14T06:57:07;14.00;;;6.88;;
43837;SDS011;65998;46.256;7.534;2023-06-14T06:59:34;13.95;;;6.53;;
43837;SDS011;65998;46.256;7.534;2023-06-14T07:02:00;15.48;;;7.05;;
43837;SDS011;65998;46.256;7.534;2023-06-14T07:04:26;13.90;;;6.53;;
43837;SDS011;65998;46.256;7.534;2023-06-14T07:06:52;14.18;;;6.45;;
43837;SDS011;65998;46.256;7.534;2023-06-14T07:09:18;13.13;;;6.30;;
43837;SDS011;65998;46.256;7.534;2023-06-14T07:11:44;12.50;;;6.05;;
43837;SDS011;65998;46.256;7.534;2023-06-14T07:14:10;14.77;;;6.57;;
43837;SDS011;65998;46.256;7.534;2023-06-14T07:16:35;12.95;;;6.57;;
43837;SDS011;65998;46.256;7.534;2023-06-14T07:19:02;11.27;;;6.05;;
43837;SDS011;65998;46.256;7.534;2023-06-14T07:21:29;13.70;;;6.82;;
43837;SDS011;65998;46.256;7.534;2023-06-14T07:23:55;13.13;;;6.30;;
43837;SDS011;65998;46.256;7.534;2023-06-14T07:26:21;13.75;;;6.32;;
43837;SDS011;65998;46.256;7.534;2023-06-14T07:28:48;12.60;;;6.10;;
43837;SDS011;65998;46.256;7.534;2023-06-14T07:31:14;12.48;;;5.93;;
43837;SDS011;65998;46.256;7.534;2023-06-14T07:33:41;12.85;;;6.35;;
43837;SDS011;65998;46.256;7.534;2023-06-14T07:36:07;14.70;;;6.68;;
43837;SDS011;65998;46.256;7.534;2023-06-14T07:38:34;12.48;;;6.15;;
43837;SDS011;65998;46.256;7.534;2023-06-14T07:41:00;12.32;;;6.07;;
43837;SDS011;65998;46.256;7.534;2023-06-14T07:43:26;12.80;;;5.63;;
43837;SDS011;65998;46.256;7.534;2023-06-14T07:45:52;12.25;;;6.00;;
43837;SDS011;65998;46.256;7.534;2023-06-14T07:48:18;12.40;;;6.30;;
43837;SDS011;65998;46.256;7.534;2023-06-14T07:50:44;13.37;;;6.47;;
43837;SDS011;65998;46.256;7.534;2023-06-14T07:53:10;11.82;;;6.00;;
43837;SDS011;65998;46.256;7.534;2023-06-14T07:55:35;12.68;;;6.00;;
43837;SDS011;65998;46.256;7.534;2023-06-14T07:58:05;15.20;;;6.43;;
43837;SDS011;65998;46.256;7.534;2023-06-14T08:00:32;12.18;;;6.03;;
43837;SDS011;65998;46.256;7.534;2023-06-14T08:02:58;12.65;;;5.65;;
43837;SDS011;65998;46.256;7.534;2023-06-14T08:05:24;12.43;;;5.93;;
43837;SDS011;65998;46.256;7.534;2023-06-14T08:07:50;12.35;;;5.90;;
43837;SDS011;65998;46.256;7.534;2023-06-14T08:10:16;12.98;;;5.75;;
43837;SDS011;65998;46.256;7.534;2023-06-14T08:12:42;12.80;;;5.72;;
43837;SDS011;65998;46.256;7.534;2023-06-14T08:15:08;10.80;;;5.70;;
43837;SDS011;65998;46.256;7.534;2023-06-14T08:17:34;11.57;;;5.70;;
43837;SDS011;65998;46.256;7.534;2023-06-14T08:20:00;10.85;;;5.53;;
43837;SDS011;65998;46.256;7.534;2023-06-14T08:22:26;11.60;;;5.45;;
43837;SDS011;65998;46.256;7.534;2023-06-14T08:24:52;10.40;;;5.28;;
43837;SDS011;65998;46.256;7.534;2023-06-14T08:27:18;11.43;;;5.82;;
43837;SDS011;65998;46.256;7.534;2023-06-14T08:29:44;11.00;;;5.70;;
43837;SDS011;65998;46.256;7.534;2023-06-14T08:32:10;11.30;;;5.28;;
43837;SDS011;65998;46.256;7.534;2023-06-14T08:34:35;10.93;;;5.23;;
43837;SDS011;65998;46.256;7.534;2023-06-14T08:37:01;12.18;;;5.63;;
43837;SDS011;65998;46.256;7.534;2023-06-14T08:39:27;10.77;;;5.50;;
43837;SDS011;65998;46.256;7.534;2023-06-14T08:41:53;10.80;;;5.00;;
43837;SDS011;65998;46.256;7.534;2023-06-14T08:44:21;11.60;;;5.60;;
43837;SDS011;65998;46.256;7.534;2023-06-14T08:46:47;10.88;;;5.50;;
43837;SDS011;65998;46.256;7.534;2023-06-14T08:49:16;10.85;;;5.43;;
43837;SDS011;65998;46.256;7.534;2023-06-14T08:51:42;11.60;;;5.55;;
43837;SDS011;65998;46.256;7.534;2023-06-14T08:54:09;11.70;;;5.43;;
43837;SDS011;65998;46.256;7.534;2023-06-14T08:56:38;10.45;;;5.30;;
43837;SDS011;65998;46.256;7.534;2023-06-14T08:59:04;10.20;;;5.13;;
43837;SDS011;65998;46.256;7.534;2023-06-14T09:01:35;12.07;;;5.38;;
43837;SDS011;65998;46.256;7.534;2023-06-14T09:04:01;11.23;;;4.90;;
43837;SDS011;65998;46.256;7.534;2023-06-14T09:06:28;10.13;;;4.93;;
43837;SDS011;65998;46.256;7.534;2023-06-14T09:08:54;10.75;;;5.10;;
43837;SDS011;65998;46.256;7.534;2023-06-14T09:11:21;9.32;;;5.30;;
43837;SDS011;65998;46.256;7.534;2023-06-14T09:13:46;10.27;;;5.03;;
43837;SDS011;65998;46.256;7.534;2023-06-14T09:16:14;8.85;;;4.68;;
43837;SDS011;65998;46.256;7.534;2023-06-14T09:18:41;9.80;;;4.95;;
43837;SDS011;65998;46.256;7.534;2023-06-14T09:21:08;9.93;;;4.55;;
43837;SDS011;65998;46.256;7.534;2023-06-14T09:23:53;10.63;;;4.60;;
43837;SDS011;65998;46.256;7.534;2023-06-14T09:26:19;10.38;;;5.32;;
43837;SDS011;65998;46.256;7.534;2023-06-14T09:28:45;9.93;;;4.72;;
43837;SDS011;65998;46.256;7.534;2023-06-14T09:31:13;10.52;;;5.03;;
43837;SDS011;65998;46.256;7.534;2023-06-14T09:33:50;9.90;;;4.53;;
43837;SDS011;65998;46.256;7.534;2023-06-14T09:36:18;8.98;;;5.03;;
43837;SDS011;65998;46.256;7.534;2023-06-14T09:41:40;9.55;;;5.03;;
43837;SDS011;65998;46.256;7.534;2023-06-14T09:44:07;8.38;;;4.35;;
43837;SDS011;65998;46.256;7.534;2023-06-14T09:46:35;9.43;;;4.88;;
43837;SDS011;65998;46.256;7.534;2023-06-14T09:49:01;9.88;;;4.78;;
43837;SDS011;65998;46.256;7.534;2023-06-14T09:51:29;9.32;;;4.50;;
43837;SDS011;65998;46.256;7.534;2023-06-14T09:53:59;9.05;;;4.45;;
43837;SDS011;65998;46.256;7.534;2023-06-14T09:58:54;9.00;;;4.63;;
43837;SDS011;65998;46.256;7.534;2023-06-14T10:01:23;9.55;;;4.93;;
43837;SDS011;65998;46.256;7.534;2023-06-14T10:03:50;9.13;;;4.80;;
43837;SDS011;65998;46.256;7.534;2023-06-14T10:06:19;8.98;;;4.55;;
43837;SDS011;65998;46.256;7.534;2023-06-14T10:08:47;9.10;;;4.30;;
43837;SDS011;65998;46.256;7.534;2023-06-14T10:11:14;8.52;;;4.13;;
43837;SDS011;65998;46.256;7.534;2023-06-14T10:13:42;9.50;;;4.75;;
43837;SDS011;65998;46.256;7.534;2023-06-14T10:21:18;9.70;;;4.40;;
43837;SDS011;65998;46.256;7.534;2023-06-14T10:23:50;8.70;;;4.18;;
43837;SDS011;65998;46.256;7.534;2023-06-14T10:26:21;9.88;;;4.70;;
43837;SDS011;65998;46.256;7.534;2023-06-14T10:28:56;9.43;;;4.40;;
43837;SDS011;65998;46.256;7.534;2023-06-14T10:31:59;8.05;;;4.00;;
43837;SDS011;65998;46.256;7.534;2023-06-14T10:34:26;8.52;;;4.50;;
43837;SDS011;65998;46.256;7.534;2023-06-14T10:39:33;9.95;;;4.25;;
43837;SDS011;65998;46.256;7.534;2023-06-14T10:42:11;9.90;;;4.40;;
43837;SDS011;65998;46.256;7.534;2023-06-14T10:44:38;8.13;;;3.92;;
43837;SDS011;65998;46.256;7.534;2023-06-14T10:47:06;8.02;;;4.20;;
43837;SDS011;65998;46.256;7.534;2023-06-14T10:49:40;8.38;;;4.57;;
43837;SDS011;65998;46.256;7.534;2023-06-14T10:52:10;9.02;;;4.07;;
43837;SDS011;65998;46.256;7.534;2023-06-14T10:57:27;8.52;;;4.32;;
43837;SDS011;65998;46.256;7.534;2023-06-14T10:59:53;8.43;;;4.32;;
43837;SDS011;65998;46.256;7.534;2023-06-14T11:09:57;8.30;;;4.32;;
43837;SDS011;65998;46.256;7.534;2023-06-14T11:12:41;8.33;;;4.00;;
43837;SDS011;65998;46.256;7.534;2023-06-14T11:15:07;7.88;;;3.90;;
43837;SDS011;65998;46.256;7.534;2023-06-14T11:17:33;8.02;;;4.00;;
43837;SDS011;65998;46.256;7.534;2023-06-14T11:20:09;8.97;;;3.93;;
43837;SDS011;65998;46.256;7.534;2023-06-14T11:22:39;8.02;;;3.95;;
43837;SDS011;65998;46.256;7.534;2023-06-14T11:25:08;8.00;;;3.95;;
43837;SDS011;65998;46.256;7.534;2023-06-14T11:27:35;8.10;;;4.57;;
43837;SDS011;65998;46.256;7.534;2023-06-14T11:30:00;7.63;;;4.03;;
43837;SDS011;65998;46.256;7.534;2023-06-14T11:32:26;8.13;;;3.92;;
43837;SDS011;65998;46.256;7.534;2023-06-14T11:34:52;7.53;;;4.00;;
43837;SDS011;65998;46.256;7.534;2023-06-14T11:37:18;8.55;;;3.83;;
43837;SDS011;65998;46.256;7.534;2023-06-14T11:39:44;7.82;;;3.95;;
43837;SDS011;65998;46.256;7.534;2023-06-14T11:42:15;7.18;;;3.83;;
43837;SDS011;65998;46.256;7.534;2023-06-14T11:44:40;6.57;;;3.50;;
43837;SDS011;65998;46.256;7.534;2023-06-14T11:47:06;6.20;;;3.40;;
43837;SDS011;65998;46.256;7.534;2023-06-14T11:49:35;8.73;;;3.90;;
43837;SDS011;65998;46.256;7.534;2023-06-14T11:52:02;7.22;;;3.40;;
43837;SDS011;65998;46.256;7.534;2023-06-14T11:54:27;7.83;;;3.60;;
43837;SDS011;65998;46.256;7.534;2023-06-14T11:56:54;6.97;;;3.72;;
43837;SDS011;65998;46.256;7.534;2023-06-14T11:59:20;7.30;;;3.78;;
43837;SDS011;65998;46.256;7.534;2023-06-14T12:01:47;7.53;;;3.83;;
43837;SDS011;65998;46.256;7.534;2023-06-14T12:04:13;7.40;;;3.63;;
43837;SDS011;65998;46.256;7.534;2023-06-14T12:06:39;6.93;;;3.58;;
43837;SDS011;65998;46.256;7.534;2023-06-14T12:09:05;7.00;;;3.73;;
43837;SDS011;65998;46.256;7.534;2023-06-14T12:11:32;6.72;;;3.40;;
43837;SDS011;65998;46.256;7.534;2023-06-14T12:13:59;6.68;;;3.47;;
43837;SDS011;65998;46.256;7.534;2023-06-14T12:16:29;7.20;;;3.90;;
43837;SDS011;65998;46.256;7.534;2023-06-14T12:21:54;6.30;;;3.13;;
43837;SDS011;65998;46.256;7.534;2023-06-14T12:24:20;6.95;;;3.70;;
43837;SDS011;65998;46.256;7.534;2023-06-14T12:26:46;7.13;;;3.45;;
43837;SDS011;65998;46.256;7.534;2023-06-14T12:29:12;6.37;;;3.40;;
43837;SDS011;65998;46.256;7.534;2023-06-14T12:31:38;7.28;;;3.45;;
43837;SDS011;65998;46.256;7.534;2023-06-14T12:34:04;6.63;;;3.40;;
43837;SDS011;65998;46.256;7.534;2023-06-14T12:36:30;7.20;;;3.60;;
43837;SDS011;65998;46.256;7.534;2023-06-14T12:38:55;5.95;;;3.17;;
43837;SDS011;65998;46.256;7.534;2023-06-14T12:41:21;6.63;;;3.40;;
43837;SDS011;65998;46.256;7.534;2023-06-14T12:43:47;6.55;;;3.38;;
43837;SDS011;65998;46.256;7.534;2023-06-14T12:46:13;6.57;;;3.67;;
43837;SDS011;65998;46.256;7.534;2023-06-14T12:48:39;6.57;;;3.30;;
43837;SDS011;65998;46.256;7.534;2023-06-14T12:51:05;6.97;;;3.20;;
43837;SDS011;65998;46.256;7.534;2023-06-14T12:53:31;6.10;;;3.20;;
43837;SDS011;65998;46.256;7.534;2023-06-14T12:55:57;5.88;;;3.17;;
43837;SDS011;65998;46.256;7.534;2023-06-14T12:58:22;6.00;;;3.30;;
43837;SDS011;65998;46.256;7.534;2023-06-14T13:00:48;5.90;;;3.40;;
43837;SDS011;65998;46.256;7.534;2023-06-14T13:03:15;5.55;;;3.00;;
43837;SDS011;65998;46.256;7.534;2023-06-14T13:05:41;6.45;;;3.38;;
43837;SDS011;65998;46.256;7.534;2023-06-14T13:08:07;6.70;;;3.10;;
43837;SDS011;65998;46.256;7.534;2023-06-14T13:10:33;6.68;;;3.10;;
43837;SDS011;65998;46.256;7.534;2023-06-14T13:12:59;5.22;;;2.80;;
43837;SDS011;65998;46.256;7.534;2023-06-14T13:15:26;5.82;;;2.72;;
43837;SDS011;65998;46.256;7.534;2023-06-14T13:17:52;5.75;;;3.75;;
43837;SDS011;65998;46.256;7.534;2023-06-14T13:20:18;6.35;;;3.20;;
43837;SDS011;65998;46.256;7.534;2023-06-14T13:22:44;6.38;;;3.28;;
43837;SDS011;65998;46.256;7.534;2023-06-14T13:25:10;7.00;;;3.63;;
43837;SDS011;65998;46.256;7.534;2023-06-14T13:27:36;8.38;;;3.20;;
43837;SDS011;65998;46.256;7.534;2023-06-14T13:30:02;5.88;;;3.30;;
43837;SDS011;65998;46.256;7.534;2023-06-14T13:32:29;6.45;;;3.40;;
43837;SDS011;65998;46.256;7.534;2023-06-14T13:34:55;6.43;;;3.10;;
43837;SDS011;65998;46.256;7.534;2023-06-14T13:37:20;5.78;;;2.95;;
43837;SDS011;65998;46.256;7.534;2023-06-14T13:39:46;5.95;;;3.10;;
43837;SDS011;65998;46.256;7.534;2023-06-14T13:42:12;6.40;;;3.45;;
43837;SDS011;65998;46.256;7.534;2023-06-14T13:44:38;5.10;;;2.60;;
43837;SDS011;65998;46.256;7.534;2023-06-14T13:47:04;6.07;;;3.23;;
43837;SDS011;65998;46.256;7.534;2023-06-14T13:49:31;5.95;;;3.10;;
43837;SDS011;65998;46.256;7.534;2023-06-14T13:51:56;5.50;;;3.07;;
43837;SDS011;65998;46.256;7.534;2023-06-14T13:54:22;5.18;;;2.88;;
43837;SDS011;65998;46.256;7.534;2023-06-14T13:56:48;5.82;;;3.13;;
43837;SDS011;65998;46.256;7.534;2023-06-14T13:59:14;5.30;;;2.80;;
43837;SDS011;65998;46.256;7.534;2023-06-14T14:01:40;6.50;;;3.45;;
43837;SDS011;65998;46.256;7.534;2023-06-14T14:04:06;6.25;;;3.20;;
43837;SDS011;65998;46.256;7.534;2023-06-14T14:06:31;5.67;;;2.93;;
43837;SDS011;65998;46.256;7.534;2023-06-14T14:08:57;5.47;;;3.00;;
43837;SDS011;65998;46.256;7.534;2023-06-14T14:11:23;5.43;;;2.77;;
43837;SDS011;65998;46.256;7.534;2023-06-14T14:13:49;5.35;;;3.00;;
43837;SDS011;65998;46.256;7.534;2023-06-14T14:16:15;5.70;;;2.97;;
43837;SDS011;65998;46.256;7.534;2023-06-14T14:18:41;5.45;;;3.10;;
43837;SDS011;65998;46.256;7.534;2023-06-14T14:21:07;5.85;;;3.15;;
43837;SDS011;65998;46.256;7.534;2023-06-14T14:23:33;6.00;;;3.10;;
43837;SDS011;65998;46.256;7.534;2023-06-14T14:25:58;5.55;;;3.15;;
43837;SDS011;65998;46.256;7.534;2023-06-14T14:28:24;5.60;;;2.90;;
43837;SDS011;65998;46.256;7.534;2023-06-14T14:30:50;5.07;;;3.00;;
43837;SDS011;65998;46.256;7.534;2023-06-14T14:33:16;5.55;;;2.95;;
43837;SDS011;65998;46.256;7.534;2023-06-14T14:35:42;5.27;;;2.93;;
43837;SDS011;65998;46.256;7.534;2023-06-14T14:38:09;5.32;;;2.83;;
43837;SDS011;65998;46.256;7.534;2023-06-14T14:40:35;5.32;;;2.70;;
43837;SDS011;65998;46.256;7.534;2023-06-14T14:43:01;5.10;;;2.90;;
43837;SDS011;65998;46.256;7.534;2023-06-14T14:45:26;4.78;;;2.53;;
43837;SDS011;65998;46.256;7.534;2023-06-14T14:47:52;4.97;;;2.78;;
43837;SDS011;65998;46.256;7.534;2023-06-14T14:50:18;5.27;;;2.70;;
43837;SDS011;65998;46.256;7.534;2023-06-14T14:52:44;5.53;;;2.88;;
43837;SDS011;65998;46.256;7.534;2023-06-14T14:55:10;5.50;;;2.83;;
43837;SDS011;65998;46.256;7.534;2023-06-14T14:57:36;4.57;;;2.55;;
43837;SDS011;65998;46.256;7.534;2023-06-14T15:00:02;4.70;;;2.83;;